sensor_id;sensor_type;location;lat;lon;timestamp;P1;durP1;ratioP1;P2;durP2;ratioP2
39680;SDS011;26327;42.550;23.120;2023-03-23T07:54:30;23.08;;;14.85;;
39680;SDS011;26327;42.550;23.120;2023-03-23T07:56:56;23.42;;;14.38;;
39680;SDS011;26327;42.550;23.120;2023-03-23T07:59:21;21.42;;;16.15;;
39680;SDS011;26327;42.550;23.120;2023-03-23T08:01:47;18.40;;;13.55;;
39680;SDS011;26327;42.550;23.120;2023-03-23T08:04:12;21.42;;;13.43;;
39680;SDS011;26327;42.550;23.120;2023-03-23T08:06:38;18.48;;;14.13;;
39680;SDS011;26327;42.550;23.120;2023-03-23T08:09:04;20.27;;;14.48;;
39680;SDS011;26327;42.550;23.120;2023-03-23T08:11:33;18.77;;;14.60;;
39680;SDS011;26327;42.550;23.120;2023-03-23T08:14:02;19.37;;;13.83;;
39680;SDS011;26327;42.550;23.120;2023-03-23T08:16:27;20.70;;;14.75;;
39680;SDS011;26327;42.550;23.120;2023-03-23T08:18:53;23.08;;;15.40;;
39680;SDS011;26327;42.550;23.120;2023-03-23T08:21:18;21.17;;;15.23;;
39680;SDS011;26327;42.550;23.120;2023-03-23T08:23:44;23.30;;;16.20;;
39680;SDS011;26327;42.550;23.120;2023-03-23T08:26:10;22.33;;;15.25;;
39680;SDS011;26327;42.550;23.120;2023-03-23T08:28:36;24.95;;;16.63;;
39680;SDS011;26327;42.550;23.120;2023-03-23T08:31:06;29.30;;;18.85;;
39680;SDS011;26327;42.550;23.120;2023-03-23T08:33:33;24.45;;;17.52;;
39680;SDS011;26327;42.550;23.120;2023-03-23T08:35:59;23.05;;;15.57;;
39680;SDS011;26327;42.550;23.120;2023-03-23T08:38:26;15.98;;;12.27;;
39680;SDS011;26327;42.550;23.120;2023-03-23T08:40:56;21.70;;;13.48;;
39680;SDS011;26327;42.550;23.120;2023-03-23T08:43:27;21.23;;;13.68;;
39680;SDS011;26327;42.550;23.120;2023-03-23T08:45:53;18.08;;;13.35;;
39680;SDS011;26327;42.550;23.120;2023-03-23T08:48:19;18.02;;;13.68;;
39680;SDS011;26327;42.550;23.120;2023-03-23T08:50:44;20.85;;;12.77;;
39680;SDS011;26327;42.550;23.120;2023-03-23T08:53:10;16.98;;;11.65;;
39680;SDS011;26327;42.550;23.120;2023-03-23T08:55:36;15.55;;;11.43;;
39680;SDS011;26327;42.550;23.120;2023-03-23T08:58:02;12.88;;;10.43;;
39680;SDS011;26327;42.550;23.120;2023-03-23T09:00:28;18.60;;;11.18;;
39680;SDS011;26327;42.550;23.120;2023-03-23T09:02:54;15.02;;;10.35;;
39680;SDS011;26327;42.550;23.120;2023-03-23T09:05:22;15.63;;;10.45;;
39680;SDS011;26327;42.550;23.120;2023-03-23T09:07:53;14.93;;;11.38;;
39680;SDS011;26327;42.550;23.120;2023-03-23T09:10:20;13.93;;;9.95;;
39680;SDS011;26327;42.550;23.120;2023-03-23T09:12:46;16.27;;;10.00;;
39680;SDS011;26327;42.550;23.120;2023-03-23T09:15:13;13.05;;;9.23;;
39680;SDS011;26327;42.550;23.120;2023-03-23T09:17:43;11.18;;;8.48;;
39680;SDS011;26327;42.550;23.120;2023-03-23T09:20:10;22.35;;;12.23;;
39680;SDS011;26327;42.550;23.120;2023-03-23T09:22:41;17.27;;;11.15;;
39680;SDS011;26327;42.550;23.120;2023-03-23T09:25:09;18.73;;;10.77;;
39680;SDS011;26327;42.550;23.120;2023-03-23T09:27:37;13.50;;;8.23;;
39680;SDS011;26327;42.550;23.120;2023-03-23T09:30:08;9.95;;;6.97;;
39680;SDS011;26327;42.550;23.120;2023-03-23T09:32:36;8.55;;;6.82;;
39680;SDS011;26327;42.550;23.120;2023-03-23T09:35:03;9.25;;;6.70;;
39680;SDS011;26327;42.550;23.120;2023-03-23T09:37:32;10.07;;;7.13;;
39680;SDS011;26327;42.550;23.120;2023-03-23T09:40:00;9.15;;;5.82;;
39680;SDS011;26327;42.550;23.120;2023-03-23T09:42:35;8.32;;;6.30;;
39680;SDS011;26327;42.550;23.120;2023-03-23T09:45:20;7.67;;;6.47;;
39680;SDS011;26327;42.550;23.120;2023-03-23T09:48:19;8.02;;;7.10;;
39680;SDS011;26327;42.550;23.120;2023-03-23T09:50:51;9.65;;;7.07;;
39680;SDS011;26327;42.550;23.120;2023-03-23T09:53:24;7.50;;;6.35;;
39680;SDS011;26327;42.550;23.120;2023-03-23T09:56:00;6.80;;;5.63;;
39680;SDS011;26327;42.550;23.120;2023-03-23T09:58:27;12.25;;;5.97;;
39680;SDS011;26327;42.550;23.120;2023-03-23T10:01:02;6.93;;;5.78;;
39680;SDS011;26327;42.550;23.120;2023-03-23T10:03:42;7.50;;;6.43;;
39680;SDS011;26327;42.550;23.120;2023-03-23T10:06:09;6.70;;;5.75;;
39680;SDS011;26327;42.550;23.120;2023-03-23T10:08:38;7.18;;;6.30;;
39680;SDS011;26327;42.550;23.120;2023-03-23T10:16:43;6.22;;;5.60;;
39680;SDS011;26327;42.550;23.120;2023-03-23T10:19:40;7.15;;;6.00;;
39680;SDS011;26327;42.550;23.120;2023-03-23T10:22:26;6.47;;;5.60;;
39680;SDS011;26327;42.550;23.120;2023-03-23T10:25:08;6.97;;;6.05;;
39680;SDS011;26327;42.550;23.120;2023-03-23T10:30:40;9.35;;;6.32;;
39680;SDS011;26327;42.550;23.120;2023-03-23T10:33:15;8.75;;;6.25;;
39680;SDS011;26327;42.550;23.120;2023-03-23T10:35:55;9.30;;;6.80;;
39680;SDS011;26327;42.550;23.120;2023-03-23T10:38:37;10.35;;;6.65;;
39680;SDS011;26327;42.550;23.120;2023-03-23T10:41:11;8.05;;;6.45;;
39680;SDS011;26327;42.550;23.120;2023-03-23T10:43:38;9.85;;;6.45;;
39680;SDS011;26327;42.550;23.120;2023-03-23T10:46:29;8.32;;;6.28;;
39680;SDS011;26327;42.550;23.120;2023-03-23T10:49:12;8.20;;;6.13;;
39680;SDS011;26327;42.550;23.120;2023-03-23T10:51:46;10.52;;;6.63;;
39680;SDS011;26327;42.550;23.120;2023-03-23T10:54:26;8.23;;;6.18;;
39680;SDS011;26327;42.550;23.120;2023-03-23T10:56:57;7.75;;;6.45;;
39680;SDS011;26327;42.550;23.120;2023-03-23T10:59:29;6.15;;;5.28;;
39680;SDS011;26327;42.550;23.120;2023-03-23T11:01:58;6.82;;;5.20;;
39680;SDS011;26327;42.550;23.120;2023-03-23T11:04:28;8.32;;;6.10;;
39680;SDS011;26327;42.550;23.120;2023-03-23T11:06:58;14.55;;;12.07;;
39680;SDS011;26327;42.550;23.120;2023-03-23T11:09:36;10.98;;;8.88;;
39680;SDS011;26327;42.550;23.120;2023-03-23T11:12:03;9.23;;;6.97;;
39680;SDS011;26327;42.550;23.120;2023-03-23T11:14:30;7.50;;;6.70;;
39680;SDS011;26327;42.550;23.120;2023-03-23T11:16:59;17.85;;;15.63;;
39680;SDS011;26327;42.550;23.120;2023-03-23T11:19:29;8.98;;;6.60;;
39680;SDS011;26327;42.550;23.120;2023-03-23T11:24:42;7.60;;;5.63;;
39680;SDS011;26327;42.550;23.120;2023-03-23T11:27:10;7.13;;;5.13;;
39680;SDS011;26327;42.550;23.120;2023-03-23T11:29:43;17.40;;;15.70;;
39680;SDS011;26327;42.550;23.120;2023-03-23T11:32:26;10.38;;;9.23;;
39680;SDS011;26327;42.550;23.120;2023-03-23T11:34:55;8.23;;;7.43;;
39680;SDS011;26327;42.550;23.120;2023-03-23T11:40:24;9.45;;;8.27;;
39680;SDS011;26327;42.550;23.120;2023-03-23T11:50:54;5.25;;;4.63;;
39680;SDS011;26327;42.550;23.120;2023-03-23T11:56:35;4.68;;;4.03;;
39680;SDS011;26327;42.550;23.120;2023-03-23T11:59:12;5.90;;;4.63;;
39680;SDS011;26327;42.550;23.120;2023-03-23T12:30:02;6.50;;;5.18;;
39680;SDS011;26327;42.550;23.120;2023-03-23T12:34:59;7.25;;;5.60;;
39680;SDS011;26327;42.550;23.120;2023-03-23T12:43:38;6.88;;;4.95;;
39680;SDS011;26327;42.550;23.120;2023-03-23T12:49:01;10.07;;;5.28;;
39680;SDS011;26327;42.550;23.120;2023-03-23T12:51:47;7.45;;;4.75;;
39680;SDS011;26327;42.550;23.120;2023-03-23T13:02:32;6.90;;;4.70;;
39680;SDS011;26327;42.550;23.120;2023-03-23T13:07:32;5.60;;;4.53;;
39680;SDS011;26327;42.550;23.120;2023-03-23T13:12:34;6.80;;;4.60;;
39680;SDS011;26327;42.550;23.120;2023-03-23T13:17:43;25.42;;;15.68;;
39680;SDS011;26327;42.550;23.120;2023-03-23T13:20:18;11.23;;;7.18;;
39680;SDS011;26327;42.550;23.120;2023-03-23T13:25:28;18.60;;;9.85;;
39680;SDS011;26327;42.550;23.120;2023-03-23T13:28:04;13.43;;;6.15;;
39680;SDS011;26327;42.550;23.120;2023-03-23T13:30:30;11.07;;;6.65;;
39680;SDS011;26327;42.550;23.120;2023-03-23T13:33:02;7.05;;;4.22;;
39680;SDS011;26327;42.550;23.120;2023-03-23T13:35:36;13.68;;;9.48;;
39680;SDS011;26327;42.550;23.120;2023-03-23T13:38:11;7.82;;;4.70;;
39680;SDS011;26327;42.550;23.120;2023-03-23T13:40:57;10.13;;;5.18;;
39680;SDS011;26327;42.550;23.120;2023-03-23T13:43:34;6.65;;;3.92;;
39680;SDS011;26327;42.550;23.120;2023-03-23T13:54:06;6.53;;;4.30;;
39680;SDS011;26327;42.550;23.120;2023-03-23T13:56:52;5.13;;;3.90;;
39680;SDS011;26327;42.550;23.120;2023-03-23T14:01:52;6.75;;;4.30;;
39680;SDS011;26327;42.550;23.120;2023-03-23T14:04:19;7.05;;;4.25;;
39680;SDS011;26327;42.550;23.120;2023-03-23T14:06:46;4.78;;;3.70;;
39680;SDS011;26327;42.550;23.120;2023-03-23T14:09:33;7.57;;;3.67;;
39680;SDS011;26327;42.550;23.120;2023-03-23T14:12:04;12.65;;;7.90;;
39680;SDS011;26327;42.550;23.120;2023-03-23T14:14:43;23.95;;;13.88;;
39680;SDS011;26327;42.550;23.120;2023-03-23T14:17:17;8.23;;;5.40;;
39680;SDS011;26327;42.550;23.120;2023-03-23T14:19:48;6.22;;;4.38;;
39680;SDS011;26327;42.550;23.120;2023-03-23T14:22:22;7.25;;;4.22;;
39680;SDS011;26327;42.550;23.120;2023-03-23T14:24:59;6.60;;;3.80;;
39680;SDS011;26327;42.550;23.120;2023-03-23T14:27:26;6.95;;;4.20;;
39680;SDS011;26327;42.550;23.120;2023-03-23T14:29:58;5.43;;;3.67;;
39680;SDS011;26327;42.550;23.120;2023-03-23T14:32:25;5.55;;;3.67;;
39680;SDS011;26327;42.550;23.120;2023-03-23T14:34:53;6.78;;;4.53;;
39680;SDS011;26327;42.550;23.120;2023-03-23T14:37:20;4.57;;;3.28;;
39680;SDS011;26327;42.550;23.120;2023-03-23T14:39:47;6.68;;;3.80;;
39680;SDS011;26327;42.550;23.120;2023-03-23T14:42:15;5.93;;;3.75;;
39680;SDS011;26327;42.550;23.120;2023-03-23T14:44:43;5.82;;;4.13;;
39680;SDS011;26327;42.550;23.120;2023-03-23T14:47:18;6.55;;;4.13;;
39680;SDS011;26327;42.550;23.120;2023-03-23T14:49:54;6.50;;;3.55;;
39680;SDS011;26327;42.550;23.120;2023-03-23T14:52:26;6.43;;;4.03;;
39680;SDS011;26327;42.550;23.120;2023-03-23T14:54:53;6.40;;;3.60;;
39680;SDS011;26327;42.550;23.120;2023-03-23T14:57:25;10.90;;;6.90;;
39680;SDS011;26327;42.550;23.120;2023-03-23T14:59:52;6.05;;;3.70;;
39680;SDS011;26327;42.550;23.120;2023-03-23T15:04:52;4.53;;;3.60;;
39680;SDS011;26327;42.550;23.120;2023-03-23T15:07:21;5.80;;;3.75;;
39680;SDS011;26327;42.550;23.120;2023-03-23T15:12:49;6.53;;;4.00;;
39680;SDS011;26327;42.550;23.120;2023-03-23T15:15:22;6.28;;;3.78;;
39680;SDS011;26327;42.550;23.120;2023-03-23T15:17:54;5.13;;;3.20;;
39680;SDS011;26327;42.550;23.120;2023-03-23T15:22:49;5.45;;;3.55;;
39680;SDS011;26327;42.550;23.120;2023-03-23T15:25:19;4.22;;;2.97;;
39680;SDS011;26327;42.550;23.120;2023-03-23T15:27:55;5.30;;;3.30;;
39680;SDS011;26327;42.550;23.120;2023-03-23T15:32:49;5.47;;;3.67;;
39680;SDS011;26327;42.550;23.120;2023-03-23T15:35:21;15.90;;;9.32;;
39680;SDS011;26327;42.550;23.120;2023-03-23T15:37:49;5.07;;;3.70;;
39680;SDS011;26327;42.550;23.120;2023-03-23T15:40:21;5.75;;;3.97;;
39680;SDS011;26327;42.550;23.120;2023-03-23T15:42:48;28.65;;;15.80;;
39680;SDS011;26327;42.550;23.120;2023-03-23T15:45:25;5.78;;;3.90;;
39680;SDS011;26327;42.550;23.120;2023-03-23T15:47:52;6.45;;;3.53;;
39680;SDS011;26327;42.550;23.120;2023-03-23T15:52:52;5.05;;;3.67;;
39680;SDS011;26327;42.550;23.120;2023-03-23T15:55:26;7.88;;;4.07;;
39680;SDS011;26327;42.550;23.120;2023-03-23T15:57:54;5.35;;;3.60;;
39680;SDS011;26327;42.550;23.120;2023-03-23T16:00:22;5.40;;;4.18;;
39680;SDS011;26327;42.550;23.120;2023-03-23T16:02:52;6.10;;;4.10;;
39680;SDS011;26327;42.550;23.120;2023-03-23T16:05:20;5.40;;;3.75;;
39680;SDS011;26327;42.550;23.120;2023-03-23T16:07:45;7.05;;;4.53;;
39680;SDS011;26327;42.550;23.120;2023-03-23T16:10:17;6.53;;;4.80;;
39680;SDS011;26327;42.550;23.120;2023-03-23T16:12:44;7.13;;;5.50;;
39680;SDS011;26327;42.550;23.120;2023-03-23T16:15:10;11.38;;;7.10;;
39680;SDS011;26327;42.550;23.120;2023-03-23T16:17:37;13.00;;;8.10;;
39680;SDS011;26327;42.550;23.120;2023-03-23T16:20:13;6.40;;;5.00;;
39680;SDS011;26327;42.550;23.120;2023-03-23T16:22:40;5.55;;;4.18;;
39680;SDS011;26327;42.550;23.120;2023-03-23T16:25:06;7.43;;;4.05;;
39680;SDS011;26327;42.550;23.120;2023-03-23T16:27:32;32.33;;;24.48;;
39680;SDS011;26327;42.550;23.120;2023-03-23T16:29:57;19.20;;;13.90;;
39680;SDS011;26327;42.550;23.120;2023-03-23T16:32:24;42.65;;;20.42;;
39680;SDS011;26327;42.550;23.120;2023-03-23T16:34:50;17.83;;;8.20;;
39680;SDS011;26327;42.550;23.120;2023-03-23T16:37:16;19.17;;;12.30;;
39680;SDS011;26327;42.550;23.120;2023-03-23T16:39:41;9.45;;;6.13;;
39680;SDS011;26327;42.550;23.120;2023-03-23T16:42:06;11.25;;;8.07;;
39680;SDS011;26327;42.550;23.120;2023-03-23T16:44:32;21.23;;;11.63;;
39680;SDS011;26327;42.550;23.120;2023-03-23T16:46:57;24.33;;;14.65;;
39680;SDS011;26327;42.550;23.120;2023-03-23T16:49:22;115.57;;;70.40;;
39680;SDS011;26327;42.550;23.120;2023-03-23T16:51:48;91.20;;;54.95;;
39680;SDS011;26327;42.550;23.120;2023-03-23T16:54:13;18.23;;;11.43;;
39680;SDS011;26327;42.550;23.120;2023-03-23T16:56:39;21.92;;;13.98;;
39680;SDS011;26327;42.550;23.120;2023-03-23T16:59:04;11.57;;;8.70;;
39680;SDS011;26327;42.550;23.120;2023-03-23T17:01:30;30.98;;;21.52;;
39680;SDS011;26327;42.550;23.120;2023-03-23T17:03:55;27.73;;;17.65;;
39680;SDS011;26327;42.550;23.120;2023-03-23T17:06:21;26.00;;;17.95;;
39680;SDS011;26327;42.550;23.120;2023-03-23T17:08:46;60.75;;;31.75;;
39680;SDS011;26327;42.550;23.120;2023-03-23T17:11:11;33.80;;;18.67;;
39680;SDS011;26327;42.550;23.120;2023-03-23T17:13:37;47.83;;;30.88;;
39680;SDS011;26327;42.550;23.120;2023-03-23T17:16:02;36.53;;;22.88;;
39680;SDS011;26327;42.550;23.120;2023-03-23T17:18:28;45.17;;;26.52;;
39680;SDS011;26327;42.550;23.120;2023-03-23T17:20:54;57.03;;;31.23;;
39680;SDS011;26327;42.550;23.120;2023-03-23T17:23:19;85.10;;;49.90;;
39680;SDS011;26327;42.550;23.120;2023-03-23T17:25:45;57.25;;;33.40;;
39680;SDS011;26327;42.550;23.120;2023-03-23T17:28:11;39.53;;;25.25;;
39680;SDS011;26327;42.550;23.120;2023-03-23T17:30:41;48.88;;;28.85;;
39680;SDS011;26327;42.550;23.120;2023-03-23T17:33:08;39.33;;;21.25;;
39680;SDS011;26327;42.550;23.120;2023-03-23T17:35:33;29.23;;;17.15;;
39680;SDS011;26327;42.550;23.120;2023-03-23T17:37:59;30.83;;;17.95;;
39680;SDS011;26327;42.550;23.120;2023-03-23T17:40:24;32.42;;;20.33;;
39680;SDS011;26327;42.550;23.120;2023-03-23T17:42:50;32.97;;;20.08;;
39680;SDS011;26327;42.550;23.120;2023-03-23T17:45:15;33.35;;;20.15;;
39680;SDS011;26327;42.550;23.120;2023-03-23T17:47:40;32.03;;;19.88;;
39680;SDS011;26327;42.550;23.120;2023-03-23T17:50:06;39.92;;;21.33;;
39680;SDS011;26327;42.550;23.120;2023-03-23T17:52:32;49.40;;;28.38;;
39680;SDS011;26327;42.550;23.120;2023-03-23T17:54:58;36.03;;;22.15;;
39680;SDS011;26327;42.550;23.120;2023-03-23T17:57:24;29.98;;;14.30;;
39680;SDS011;26327;42.550;23.120;2023-03-23T17:59:49;31.52;;;17.42;;
39680;SDS011;26327;42.550;23.120;2023-03-23T18:02:15;42.13;;;21.63;;
39680;SDS011;26327;42.550;23.120;2023-03-23T18:04:42;40.50;;;21.90;;
39680;SDS011;26327;42.550;23.120;2023-03-23T18:07:09;36.95;;;21.90;;
39680;SDS011;26327;42.550;23.120;2023-03-23T18:09:34;38.38;;;21.38;;
39680;SDS011;26327;42.550;23.120;2023-03-23T18:12:00;36.17;;;21.30;;
39680;SDS011;26327;42.550;23.120;2023-03-23T18:14:25;40.45;;;23.27;;
39680;SDS011;26327;42.550;23.120;2023-03-23T18:16:51;33.13;;;20.77;;
39680;SDS011;26327;42.550;23.120;2023-03-23T18:19:17;33.92;;;19.65;;
39680;SDS011;26327;42.550;23.120;2023-03-23T18:21:42;30.33;;;15.35;;
39680;SDS011;26327;42.550;23.120;2023-03-23T18:24:08;24.08;;;14.52;;
39680;SDS011;26327;42.550;23.120;2023-03-23T18:26:33;32.72;;;18.15;;
39680;SDS011;26327;42.550;23.120;2023-03-23T18:28:59;39.63;;;19.75;;
39680;SDS011;26327;42.550;23.120;2023-03-23T18:31:25;42.45;;;21.90;;
39680;SDS011;26327;42.550;23.120;2023-03-23T18:33:50;31.13;;;16.90;;
39680;SDS011;26327;42.550;23.120;2023-03-23T18:36:18;23.02;;;13.35;;
39680;SDS011;26327;42.550;23.120;2023-03-23T18:38:44;27.25;;;14.85;;
39680;SDS011;26327;42.550;23.120;2023-03-23T18:41:11;19.90;;;12.40;;
39680;SDS011;26327;42.550;23.120;2023-03-23T18:43:37;22.35;;;11.45;;
39680;SDS011;26327;42.550;23.120;2023-03-23T18:46:03;19.92;;;10.88;;
39680;SDS011;26327;42.550;23.120;2023-03-23T18:48:29;19.13;;;10.63;;
39680;SDS011;26327;42.550;23.120;2023-03-23T18:50:55;22.50;;;13.45;;
39680;SDS011;26327;42.550;23.120;2023-03-23T18:53:22;24.50;;;15.45;;
39680;SDS011;26327;42.550;23.120;2023-03-23T18:55:49;27.00;;;17.00;;
39680;SDS011;26327;42.550;23.120;2023-03-23T18:58:15;14.68;;;10.20;;
39680;SDS011;26327;42.550;23.120;2023-03-23T19:00:42;17.27;;;10.38;;
39680;SDS011;26327;42.550;23.120;2023-03-23T19:03:08;18.70;;;10.05;;
39680;SDS011;26327;42.550;23.120;2023-03-23T19:05:35;15.07;;;9.82;;
39680;SDS011;26327;42.550;23.120;2023-03-23T19:08:03;15.85;;;9.70;;
39680;SDS011;26327;42.550;23.120;2023-03-23T19:10:29;17.88;;;10.82;;
39680;SDS011;26327;42.550;23.120;2023-03-23T19:12:55;17.45;;;10.55;;
39680;SDS011;26327;42.550;23.120;2023-03-23T19:15:21;25.25;;;15.77;;
39680;SDS011;26327;42.550;23.120;2023-03-23T19:17:48;18.92;;;12.32;;
39680;SDS011;26327;42.550;23.120;2023-03-23T19:20:19;24.73;;;12.52;;
39680;SDS011;26327;42.550;23.120;2023-03-23T19:22:48;32.20;;;20.83;;
39680;SDS011;26327;42.550;23.120;2023-03-23T19:25:14;19.50;;;12.35;;
39680;SDS011;26327;42.550;23.120;2023-03-23T19:27:39;13.77;;;9.02;;
39680;SDS011;26327;42.550;23.120;2023-03-23T19:30:06;23.77;;;13.07;;
39680;SDS011;26327;42.550;23.120;2023-03-23T19:32:33;22.65;;;11.60;;
39680;SDS011;26327;42.550;23.120;2023-03-23T19:34:59;21.02;;;12.57;;
39680;SDS011;26327;42.550;23.120;2023-03-23T19:37:25;24.23;;;12.77;;
39680;SDS011;26327;42.550;23.120;2023-03-23T19:39:51;30.02;;;15.30;;
39680;SDS011;26327;42.550;23.120;2023-03-23T19:42:16;25.38;;;13.18;;
39680;SDS011;26327;42.550;23.120;2023-03-23T19:44:44;22.45;;;13.00;;
39680;SDS011;26327;42.550;23.120;2023-03-23T19:47:10;22.25;;;12.45;;
39680;SDS011;26327;42.550;23.120;2023-03-23T19:49:36;32.53;;;16.98;;
39680;SDS011;26327;42.550;23.120;2023-03-23T19:52:02;35.03;;;19.00;;
39680;SDS011;26327;42.550;23.120;2023-03-23T19:54:29;23.20;;;12.60;;
39680;SDS011;26327;42.550;23.120;2023-03-23T19:56:55;13.75;;;8.20;;
39680;SDS011;26327;42.550;23.120;2023-03-23T19:59:21;16.77;;;8.45;;
39680;SDS011;26327;42.550;23.120;2023-03-23T20:01:46;15.20;;;8.38;;
39680;SDS011;26327;42.550;23.120;2023-03-23T20:04:12;14.45;;;8.65;;
39680;SDS011;26327;42.550;23.120;2023-03-23T20:06:37;14.05;;;7.15;;
39680;SDS011;26327;42.550;23.120;2023-03-23T20:09:03;11.48;;;6.45;;
39680;SDS011;26327;42.550;23.120;2023-03-23T20:11:31;12.73;;;7.05;;
39680;SDS011;26327;42.550;23.120;2023-03-23T20:13:56;12.15;;;7.72;;
39680;SDS011;26327;42.550;23.120;2023-03-23T20:16:22;14.82;;;9.02;;
39680;SDS011;26327;42.550;23.120;2023-03-23T20:18:48;14.10;;;8.85;;
39680;SDS011;26327;42.550;23.120;2023-03-23T20:21:14;9.20;;;5.78;;
39680;SDS011;26327;42.550;23.120;2023-03-23T20:23:42;12.68;;;8.20;;
39680;SDS011;26327;42.550;23.120;2023-03-23T20:26:12;16.02;;;8.93;;
39680;SDS011;26327;42.550;23.120;2023-03-23T20:28:42;19.10;;;11.23;;
39680;SDS011;26327;42.550;23.120;2023-03-23T20:31:19;15.85;;;9.45;;
39680;SDS011;26327;42.550;23.120;2023-03-23T20:33:46;15.48;;;10.10;;
39680;SDS011;26327;42.550;23.120;2023-03-23T20:36:12;17.40;;;11.80;;
39680;SDS011;26327;42.550;23.120;2023-03-23T20:38:39;19.05;;;10.75;;
39680;SDS011;26327;42.550;23.120;2023-03-23T20:41:08;16.55;;;10.18;;
39680;SDS011;26327;42.550;23.120;2023-03-23T20:43:39;16.40;;;9.63;;
39680;SDS011;26327;42.550;23.120;2023-03-23T20:46:06;19.60;;;11.43;;
39680;SDS011;26327;42.550;23.120;2023-03-23T20:48:34;15.30;;;8.25;;
39680;SDS011;26327;42.550;23.120;2023-03-23T20:51:01;14.82;;;8.60;;
39680;SDS011;26327;42.550;23.120;2023-03-23T20:53:29;19.33;;;10.57;;
39680;SDS011;26327;42.550;23.120;2023-03-23T20:55:56;25.70;;;16.15;;
39680;SDS011;26327;42.550;23.120;2023-03-23T20:58:24;18.00;;;10.63;;
39680;SDS011;26327;42.550;23.120;2023-03-23T21:00:51;15.15;;;9.15;;
39680;SDS011;26327;42.550;23.120;2023-03-23T21:03:25;18.00;;;11.30;;
39680;SDS011;26327;42.550;23.120;2023-03-23T21:05:55;21.52;;;9.68;;
39680;SDS011;26327;42.550;23.120;2023-03-23T21:08:21;20.77;;;11.57;;
39680;SDS011;26327;42.550;23.120;2023-03-23T21:10:48;23.73;;;11.95;;
39680;SDS011;26327;42.550;23.120;2023-03-23T21:13:14;22.30;;;12.80;;
39680;SDS011;26327;42.550;23.120;2023-03-23T21:15:39;21.25;;;10.90;;
39680;SDS011;26327;42.550;23.120;2023-03-23T21:18:06;21.95;;;10.55;;
39680;SDS011;26327;42.550;23.120;2023-03-23T21:20:32;18.25;;;9.32;;
39680;SDS011;26327;42.550;23.120;2023-03-23T21:22:58;20.77;;;12.05;;
39680;SDS011;26327;42.550;23.120;2023-03-23T21:25:25;24.70;;;13.82;;
39680;SDS011;26327;42.550;23.120;2023-03-23T21:27:52;26.80;;;13.68;;
39680;SDS011;26327;42.550;23.120;2023-03-23T21:30:18;23.17;;;12.30;;
39680;SDS011;26327;42.550;23.120;2023-03-23T21:32:44;19.95;;;11.18;;
39680;SDS011;26327;42.550;23.120;2023-03-23T21:35:10;16.58;;;9.52;;
39680;SDS011;26327;42.550;23.120;2023-03-23T21:37:36;17.50;;;9.68;;
39680;SDS011;26327;42.550;23.120;2023-03-23T21:40:02;19.52;;;10.30;;
39680;SDS011;26327;42.550;23.120;2023-03-23T21:42:30;26.80;;;13.18;;
39680;SDS011;26327;42.550;23.120;2023-03-23T21:44:56;19.65;;;10.18;;
39680;SDS011;26327;42.550;23.120;2023-03-23T21:47:25;28.35;;;13.57;;
39680;SDS011;26327;42.550;23.120;2023-03-23T21:49:55;26.27;;;13.30;;
39680;SDS011;26327;42.550;23.120;2023-03-23T21:52:21;16.52;;;9.82;;
39680;SDS011;26327;42.550;23.120;2023-03-23T21:54:47;16.15;;;9.18;;
39680;SDS011;26327;42.550;23.120;2023-03-23T21:57:13;20.45;;;9.20;;
39680;SDS011;26327;42.550;23.120;2023-03-23T21:59:38;16.25;;;9.27;;
39680;SDS011;26327;42.550;23.120;2023-03-23T22:02:04;14.02;;;6.90;;
39680;SDS011;26327;42.550;23.120;2023-03-23T22:04:30;15.55;;;7.07;;
39680;SDS011;26327;42.550;23.120;2023-03-23T22:06:56;15.00;;;7.50;;
39680;SDS011;26327;42.550;23.120;2023-03-23T22:09:22;18.85;;;9.82;;
39680;SDS011;26327;42.550;23.120;2023-03-23T22:11:47;18.10;;;10.73;;
39680;SDS011;26327;42.550;23.120;2023-03-23T22:14:13;20.17;;;11.65;;
39680;SDS011;26327;42.550;23.120;2023-03-23T22:16:38;27.58;;;13.45;;
39680;SDS011;26327;42.550;23.120;2023-03-23T22:19:04;24.88;;;10.98;;
39680;SDS011;26327;42.550;23.120;2023-03-23T22:21:30;21.17;;;10.98;;
39680;SDS011;26327;42.550;23.120;2023-03-23T22:23:58;14.65;;;7.95;;
39680;SDS011;26327;42.550;23.120;2023-03-23T22:26:24;14.15;;;7.68;;
39680;SDS011;26327;42.550;23.120;2023-03-23T22:28:51;8.30;;;5.18;;
39680;SDS011;26327;42.550;23.120;2023-03-23T22:31:18;8.98;;;5.07;;
39680;SDS011;26327;42.550;23.120;2023-03-23T22:33:47;9.10;;;5.07;;
39680;SDS011;26327;42.550;23.120;2023-03-23T22:36:14;11.10;;;6.55;;
39680;SDS011;26327;42.550;23.120;2023-03-23T22:38:41;13.90;;;7.63;;
39680;SDS011;26327;42.550;23.120;2023-03-23T22:41:09;17.00;;;8.07;;
39680;SDS011;26327;42.550;23.120;2023-03-23T22:43:42;13.48;;;7.45;;
39680;SDS011;26327;42.550;23.120;2023-03-23T22:46:07;17.67;;;8.55;;
39680;SDS011;26327;42.550;23.120;2023-03-23T22:48:33;19.73;;;9.75;;
39680;SDS011;26327;42.550;23.120;2023-03-23T22:50:58;12.85;;;5.95;;
39680;SDS011;26327;42.550;23.120;2023-03-23T22:53:24;10.32;;;6.07;;
39680;SDS011;26327;42.550;23.120;2023-03-23T22:55:51;8.20;;;5.22;;
39680;SDS011;26327;42.550;23.120;2023-03-23T22:58:18;9.40;;;5.50;;
39680;SDS011;26327;42.550;23.120;2023-03-23T23:00:45;8.65;;;4.82;;
39680;SDS011;26327;42.550;23.120;2023-03-23T23:03:12;10.63;;;5.03;;
39680;SDS011;26327;42.550;23.120;2023-03-23T23:05:42;11.20;;;5.10;;
39680;SDS011;26327;42.550;23.120;2023-03-23T23:08:14;7.82;;;5.00;;
39680;SDS011;26327;42.550;23.120;2023-03-23T23:10:41;11.95;;;5.50;;
39680;SDS011;26327;42.550;23.120;2023-03-23T23:13:08;9.73;;;5.72;;
39680;SDS011;26327;42.550;23.120;2023-03-23T23:15:35;13.07;;;6.00;;
39680;SDS011;26327;42.550;23.120;2023-03-23T23:18:02;10.27;;;6.03;;
